sensor_id;sensor_type;location;lat;lon;timestamp;pressure;altitude;pressure_sealevel;temperature;humidity
39267;BME280;24967;51.154;13.812;2023-05-24T00:01:04;99721.56;;;11.23;79.58
39267;BME280;24967;51.154;13.812;2023-05-24T00:03:31;99729.72;;;11.39;79.30
39267;BME280;24967;51.154;13.812;2023-05-24T00:06:00;99733.72;;;11.43;78.19
39267;BME280;24967;51.154;13.812;2023-05-24T00:08:28;99744.97;;;11.37;77.64
39267;BME280;24967;51.154;13.812;2023-05-24T00:10:54;99745.97;;;11.36;77.54
39267;BME280;24967;51.154;13.812;2023-05-24T00:13:21;99752.03;;;11.56;77.05
39267;BME280;24967;51.154;13.812;2023-05-24T00:15:47;99751.94;;;11.48;77.12
39267;BME280;24967;51.154;13.812;2023-05-24T00:18:14;99751.09;;;11.65;75.97
39267;BME280;24967;51.154;13.812;2023-05-24T00:20:41;99745.47;;;11.68;77.69
39267;BME280;24967;51.154;13.812;2023-05-24T00:23:09;99736.97;;;11.65;76.58
39267;BME280;24967;51.154;13.812;2023-05-24T00:25:36;99747.13;;;11.69;76.68
39267;BME280;24967;51.154;13.812;2023-05-24T00:28:02;99750.09;;;11.66;76.95
39267;BME280;24967;51.154;13.812;2023-05-24T00:30:29;99752.06;;;11.64;76.62
39267;BME280;24967;51.154;13.812;2023-05-24T00:32:55;99756.19;;;11.77;75.83
39267;BME280;24967;51.154;13.812;2023-05-24T00:35:22;99755.69;;;11.91;76.20
39267;BME280;24967;51.154;13.812;2023-05-24T00:37:48;99749.41;;;11.82;76.33
39267;BME280;24967;51.154;13.812;2023-05-24T00:40:16;99755.44;;;11.66;76.57
39267;BME280;24967;51.154;13.812;2023-05-24T00:42:43;99752.78;;;11.66;78.65
39267;BME280;24967;51.154;13.812;2023-05-24T00:45:09;99756.56;;;11.82;77.93
39267;BME280;24967;51.154;13.812;2023-05-24T00:47:36;99753.38;;;11.78;77.53
39267;BME280;24967;51.154;13.812;2023-05-24T00:50:03;99754.97;;;11.89;77.08
39267;BME280;24967;51.154;13.812;2023-05-24T00:52:31;99755.22;;;11.78;77.28
39267;BME280;24967;51.154;13.812;2023-05-24T00:54:57;99753.84;;;11.91;77.03
39267;BME280;24967;51.154;13.812;2023-05-24T00:57:25;99752.69;;;11.94;77.11
39267;BME280;24967;51.154;13.812;2023-05-24T00:59:54;99755.88;;;11.98;77.06
39267;BME280;24967;51.154;13.812;2023-05-24T01:02:21;99756.75;;;11.98;77.23
39267;BME280;24967;51.154;13.812;2023-05-24T01:04:49;99754.09;;;11.98;77.70
39267;BME280;24967;51.154;13.812;2023-05-24T01:07:21;99765.63;;;11.89;78.49
39267;BME280;24967;51.154;13.812;2023-05-24T01:10:03;99764.03;;;11.78;78.47
39267;BME280;24967;51.154;13.812;2023-05-24T01:12:39;99772.25;;;11.67;77.80
39267;BME280;24967;51.154;13.812;2023-05-24T01:15:19;99773.38;;;11.64;77.96
39267;BME280;24967;51.154;13.812;2023-05-24T01:17:53;99769.13;;;11.54;78.36
39267;BME280;24967;51.154;13.812;2023-05-24T01:20:27;99779.22;;;11.32;78.67
39267;BME280;24967;51.154;13.812;2023-05-24T01:23:13;99771.09;;;11.52;78.55
39267;BME280;24967;51.154;13.812;2023-05-24T01:25:47;99777.19;;;11.62;78.39
39267;BME280;24967;51.154;13.812;2023-05-24T01:28:17;99773.75;;;11.52;77.34
39267;BME280;24967;51.154;13.812;2023-05-24T01:30:43;99770.78;;;11.37;76.91
39267;BME280;24967;51.154;13.812;2023-05-24T01:33:10;99777.69;;;11.30;76.26
39267;BME280;24967;51.154;13.812;2023-05-24T01:35:37;99774.00;;;11.13;77.09
39267;BME280;24967;51.154;13.812;2023-05-24T01:38:07;99785.75;;;11.10;76.33
39267;BME280;24967;51.154;13.812;2023-05-24T01:40:34;99783.50;;;11.15;76.09
39267;BME280;24967;51.154;13.812;2023-05-24T01:43:05;99786.38;;;11.32;75.96
39267;BME280;24967;51.154;13.812;2023-05-24T01:45:40;99785.63;;;11.12;75.43
39267;BME280;24967;51.154;13.812;2023-05-24T01:48:13;99785.53;;;11.04;75.38
39267;BME280;24967;51.154;13.812;2023-05-24T01:50:45;99781.53;;;10.90;76.23
39267;BME280;24967;51.154;13.812;2023-05-24T01:53:16;99785.94;;;10.71;75.15
39267;BME280;24967;51.154;13.812;2023-05-24T01:55:43;99789.81;;;10.77;75.27
39267;BME280;24967;51.154;13.812;2023-05-24T01:58:15;99793.47;;;10.76;76.39
39267;BME280;24967;51.154;13.812;2023-05-24T02:00:43;99799.88;;;10.83;76.14
39267;BME280;24967;51.154;13.812;2023-05-24T02:03:12;99793.13;;;10.98;75.11
39267;BME280;24967;51.154;13.812;2023-05-24T02:05:39;99801.72;;;10.83;75.16
39267;BME280;24967;51.154;13.812;2023-05-24T02:08:06;99794.53;;;10.93;74.21
39267;BME280;24967;51.154;13.812;2023-05-24T02:10:33;99795.31;;;10.75;74.11
39267;BME280;24967;51.154;13.812;2023-05-24T02:13:02;99789.53;;;10.90;74.56
39267;BME280;24967;51.154;13.812;2023-05-24T02:15:29;99786.03;;;10.89;74.36
39267;BME280;24967;51.154;13.812;2023-05-24T02:17:57;99787.41;;;10.56;74.54
39267;BME280;24967;51.154;13.812;2023-05-24T02:20:25;99784.13;;;10.72;74.83
39267;BME280;24967;51.154;13.812;2023-05-24T02:22:55;99787.81;;;10.89;74.07
39267;BME280;24967;51.154;13.812;2023-05-24T02:25:22;99782.78;;;10.95;73.45
39267;BME280;24967;51.154;13.812;2023-05-24T02:27:48;99778.59;;;10.83;73.12
39267;BME280;24967;51.154;13.812;2023-05-24T02:30:15;99780.00;;;10.87;72.99
39267;BME280;24967;51.154;13.812;2023-05-24T02:32:41;99779.06;;;10.78;73.55
39267;BME280;24967;51.154;13.812;2023-05-24T02:35:09;99784.59;;;10.58;73.48
39267;BME280;24967;51.154;13.812;2023-05-24T02:37:35;99781.44;;;10.82;72.97
39267;BME280;24967;51.154;13.812;2023-05-24T02:40:02;99785.00;;;10.63;73.24
39267;BME280;24967;51.154;13.812;2023-05-24T02:42:29;99783.59;;;10.59;73.11
39267;BME280;24967;51.154;13.812;2023-05-24T02:44:56;99782.66;;;10.40;73.58
39267;BME280;24967;51.154;13.812;2023-05-24T02:47:22;99776.66;;;10.28;74.01
39267;BME280;24967;51.154;13.812;2023-05-24T02:49:50;99779.00;;;10.51;73.48
39267;BME280;24967;51.154;13.812;2023-05-24T02:52:18;99779.84;;;10.51;73.45
39267;BME280;24967;51.154;13.812;2023-05-24T02:54:47;99769.00;;;10.72;73.14
39267;BME280;24967;51.154;13.812;2023-05-24T02:57:13;99773.84;;;10.87;72.68
39267;BME280;24967;51.154;13.812;2023-05-24T02:59:40;99778.72;;;10.91;73.16
39267;BME280;24967;51.154;13.812;2023-05-24T03:02:07;99772.50;;;10.73;73.31
39267;BME280;24967;51.154;13.812;2023-05-24T03:04:34;99772.97;;;10.59;73.67
39267;BME280;24967;51.154;13.812;2023-05-24T03:07:00;99780.06;;;10.77;73.55
39267;BME280;24967;51.154;13.812;2023-05-24T03:09:28;99773.63;;;10.70;73.36
39267;BME280;24967;51.154;13.812;2023-05-24T03:11:55;99776.41;;;10.78;73.46
39267;BME280;24967;51.154;13.812;2023-05-24T03:14:21;99772.50;;;10.73;73.06
39267;BME280;24967;51.154;13.812;2023-05-24T03:16:49;99778.56;;;10.55;73.07
39267;BME280;24967;51.154;13.812;2023-05-24T03:19:15;99781.06;;;10.67;72.45
39267;BME280;24967;51.154;13.812;2023-05-24T03:21:42;99781.84;;;10.87;71.95
39267;BME280;24967;51.154;13.812;2023-05-24T03:24:09;99780.13;;;10.95;72.14
39267;BME280;24967;51.154;13.812;2023-05-24T03:26:38;99784.25;;;11.08;72.09
39267;BME280;24967;51.154;13.812;2023-05-24T03:29:05;99792.19;;;10.80;73.09
39267;BME280;24967;51.154;13.812;2023-05-24T03:31:31;99787.41;;;10.93;73.20
39267;BME280;24967;51.154;13.812;2023-05-24T03:33:58;99783.38;;;10.80;73.60
39267;BME280;24967;51.154;13.812;2023-05-24T03:36:24;99788.09;;;10.95;72.58
39267;BME280;24967;51.154;13.812;2023-05-24T03:38:53;99795.91;;;10.60;72.60
39267;BME280;24967;51.154;13.812;2023-05-24T03:41:22;99789.66;;;10.88;72.34
39267;BME280;24967;51.154;13.812;2023-05-24T03:43:50;99790.28;;;10.72;71.87
39267;BME280;24967;51.154;13.812;2023-05-24T03:46:16;99794.34;;;10.67;71.74
39267;BME280;24967;51.154;13.812;2023-05-24T03:48:43;99796.63;;;10.52;72.14
39267;BME280;24967;51.154;13.812;2023-05-24T03:51:09;99798.19;;;10.45;73.27
39267;BME280;24967;51.154;13.812;2023-05-24T03:53:36;99793.25;;;10.60;73.34
39267;BME280;24967;51.154;13.812;2023-05-24T03:56:02;99809.25;;;10.50;72.57
39267;BME280;24967;51.154;13.812;2023-05-24T03:58:29;99806.13;;;10.54;72.82
39267;BME280;24967;51.154;13.812;2023-05-24T04:00:57;99804.97;;;10.67;72.45
39267;BME280;24967;51.154;13.812;2023-05-24T04:03:23;99806.31;;;10.53;72.72
39267;BME280;24967;51.154;13.812;2023-05-24T04:05:50;99802.34;;;10.57;72.58
39267;BME280;24967;51.154;13.812;2023-05-24T04:08:17;99812.75;;;10.50;73.74
39267;BME280;24967;51.154;13.812;2023-05-24T04:10:43;99811.63;;;10.43;73.23
39267;BME280;24967;51.154;13.812;2023-05-24T04:13:10;99818.88;;;10.51;72.87
39267;BME280;24967;51.154;13.812;2023-05-24T04:15:37;99815.41;;;10.50;73.14
39267;BME280;24967;51.154;13.812;2023-05-24T04:18:05;99817.19;;;10.60;72.47
39267;BME280;24967;51.154;13.812;2023-05-24T04:20:31;99817.44;;;10.66;72.10
39267;BME280;24967;51.154;13.812;2023-05-24T04:22:58;99823.34;;;10.41;73.18
39267;BME280;24967;51.154;13.812;2023-05-24T04:25:24;99820.31;;;10.36;73.95
39267;BME280;24967;51.154;13.812;2023-05-24T04:27:51;99823.22;;;10.52;73.96
39267;BME280;24967;51.154;13.812;2023-05-24T04:30:18;99826.25;;;10.67;73.26
39267;BME280;24967;51.154;13.812;2023-05-24T04:32:45;99829.75;;;10.67;73.65
39267;BME280;24967;51.154;13.812;2023-05-24T04:35:14;99838.06;;;10.92;73.07
39267;BME280;24967;51.154;13.812;2023-05-24T04:37:41;99831.72;;;10.65;72.60
39267;BME280;24967;51.154;13.812;2023-05-24T04:40:09;99837.97;;;10.74;72.23
39267;BME280;24967;51.154;13.812;2023-05-24T04:42:36;99838.84;;;10.74;72.19
39267;BME280;24967;51.154;13.812;2023-05-24T04:45:03;99840.47;;;10.85;72.57
39267;BME280;24967;51.154;13.812;2023-05-24T04:47:29;99839.38;;;10.78;72.68
39267;BME280;24967;51.154;13.812;2023-05-24T04:49:55;99836.28;;;10.83;72.83
39267;BME280;24967;51.154;13.812;2023-05-24T04:52:23;99840.47;;;10.85;73.33
39267;BME280;24967;51.154;13.812;2023-05-24T04:54:50;99847.09;;;10.71;71.69
39267;BME280;24967;51.154;13.812;2023-05-24T04:57:17;99847.31;;;10.88;71.79
39267;BME280;24967;51.154;13.812;2023-05-24T04:59:43;99855.03;;;10.91;73.17
39267;BME280;24967;51.154;13.812;2023-05-24T05:02:10;99858.50;;;10.91;71.41
39267;BME280;24967;51.154;13.812;2023-05-24T05:04:38;99854.38;;;10.69;71.41
39267;BME280;24967;51.154;13.812;2023-05-24T05:07:05;99857.19;;;10.58;71.23
39267;BME280;24967;51.154;13.812;2023-05-24T05:09:34;99873.69;;;10.62;71.13
39267;BME280;24967;51.154;13.812;2023-05-24T05:12:01;99873.84;;;10.60;71.03
39267;BME280;24967;51.154;13.812;2023-05-24T05:14:27;99873.56;;;10.44;71.55
39267;BME280;24967;51.154;13.812;2023-05-24T05:16:54;99875.38;;;10.72;71.84
39267;BME280;24967;51.154;13.812;2023-05-24T05:19:20;99875.50;;;10.81;71.99
39267;BME280;24967;51.154;13.812;2023-05-24T05:21:47;99869.09;;;10.64;72.76
39267;BME280;24967;51.154;13.812;2023-05-24T05:24:13;99869.88;;;10.74;72.52
39267;BME280;24967;51.154;13.812;2023-05-24T05:26:41;99872.31;;;10.58;71.79
39267;BME280;24967;51.154;13.812;2023-05-24T05:29:08;99864.75;;;10.63;72.46
39267;BME280;24967;51.154;13.812;2023-05-24T05:31:34;99863.47;;;10.67;71.77
39267;BME280;24967;51.154;13.812;2023-05-24T05:34:01;99869.63;;;10.67;72.00
39267;BME280;24967;51.154;13.812;2023-05-24T05:36:27;99875.50;;;10.71;71.30
39267;BME280;24967;51.154;13.812;2023-05-24T05:38:54;99865.59;;;10.63;71.34
39267;BME280;24967;51.154;13.812;2023-05-24T05:41:20;99877.44;;;10.78;71.40
39267;BME280;24967;51.154;13.812;2023-05-24T05:43:48;99888.66;;;10.72;71.31
39267;BME280;24967;51.154;13.812;2023-05-24T05:46:15;99881.81;;;10.70;70.92
39267;BME280;24967;51.154;13.812;2023-05-24T05:48:41;99881.00;;;10.50;71.34
39267;BME280;24967;51.154;13.812;2023-05-24T05:51:08;99886.31;;;10.60;71.47
39267;BME280;24967;51.154;13.812;2023-05-24T05:53:34;99873.69;;;10.71;71.81
39267;BME280;24967;51.154;13.812;2023-05-24T05:56:01;99882.59;;;10.80;71.22
39267;BME280;24967;51.154;13.812;2023-05-24T05:58:27;99883.22;;;10.54;71.71
39267;BME280;24967;51.154;13.812;2023-05-24T06:00:55;99880.28;;;10.58;70.95
39267;BME280;24967;51.154;13.812;2023-05-24T06:03:21;99893.44;;;10.59;70.91
39267;BME280;24967;51.154;13.812;2023-05-24T06:05:48;99884.16;;;10.83;71.72
39267;BME280;24967;51.154;13.812;2023-05-24T06:08:14;99882.03;;;10.96;71.70
39267;BME280;24967;51.154;13.812;2023-05-24T06:10:40;99882.25;;;11.12;70.91
39267;BME280;24967;51.154;13.812;2023-05-24T06:13:07;99883.59;;;11.26;71.01
39267;BME280;24967;51.154;13.812;2023-05-24T06:15:33;99887.34;;;10.96;70.47
39267;BME280;24967;51.154;13.812;2023-05-24T06:18:01;99894.97;;;11.18;70.45
39267;BME280;24967;51.154;13.812;2023-05-24T06:20:27;99897.66;;;11.09;70.44
39267;BME280;24967;51.154;13.812;2023-05-24T06:22:54;99904.28;;;11.05;69.99
39267;BME280;24967;51.154;13.812;2023-05-24T06:25:21;99899.91;;;11.04;69.67
39267;BME280;24967;51.154;13.812;2023-05-24T06:27:48;99897.53;;;11.00;69.25
39267;BME280;24967;51.154;13.812;2023-05-24T06:30:15;99899.34;;;11.10;69.56
39267;BME280;24967;51.154;13.812;2023-05-24T06:32:42;99905.19;;;11.13;69.47
39267;BME280;24967;51.154;13.812;2023-05-24T06:35:10;99907.06;;;11.03;69.92
39267;BME280;24967;51.154;13.812;2023-05-24T06:37:37;99908.72;;;11.04;70.49
39267;BME280;24967;51.154;13.812;2023-05-24T06:40:05;99904.06;;;11.16;70.54
39267;BME280;24967;51.154;13.812;2023-05-24T06:42:34;99906.28;;;11.30;69.70
39267;BME280;24967;51.154;13.812;2023-05-24T06:45:00;99903.25;;;11.70;70.10
39267;BME280;24967;51.154;13.812;2023-05-24T06:47:27;99906.19;;;11.77;69.62
39267;BME280;24967;51.154;13.812;2023-05-24T06:49:53;99903.41;;;11.97;69.03
39267;BME280;24967;51.154;13.812;2023-05-24T06:52:22;99909.59;;;11.97;66.70
39267;BME280;24967;51.154;13.812;2023-05-24T06:54:48;99908.06;;;12.30;67.03
39267;BME280;24967;51.154;13.812;2023-05-24T06:57:16;99908.59;;;12.16;65.26
39267;BME280;24967;51.154;13.812;2023-05-24T06:59:42;99917.59;;;12.15;65.48
39267;BME280;24967;51.154;13.812;2023-05-24T07:02:09;99920.97;;;12.17;66.29
39267;BME280;24967;51.154;13.812;2023-05-24T07:04:38;99920.56;;;12.48;65.55
39267;BME280;24967;51.154;13.812;2023-05-24T07:07:07;99903.75;;;12.47;65.87
39267;BME280;24967;51.154;13.812;2023-05-24T07:09:38;99912.66;;;12.38;64.37
39267;BME280;24967;51.154;13.812;2023-05-24T07:12:05;99915.31;;;12.20;64.48
39267;BME280;24967;51.154;13.812;2023-05-24T07:14:33;99920.41;;;12.31;64.25
39267;BME280;24967;51.154;13.812;2023-05-24T07:17:00;99918.78;;;11.85;66.76
39267;BME280;24967;51.154;13.812;2023-05-24T07:19:27;99921.47;;;12.03;66.31
39267;BME280;24967;51.154;13.812;2023-05-24T07:21:53;99920.00;;;11.90;66.92
39267;BME280;24967;51.154;13.812;2023-05-24T07:24:20;99927.94;;;12.00;65.89
39267;BME280;24967;51.154;13.812;2023-05-24T07:26:50;99928.44;;;11.86;65.08
39267;BME280;24967;51.154;13.812;2023-05-24T07:29:16;99930.69;;;11.81;66.07
39267;BME280;24967;51.154;13.812;2023-05-24T07:31:43;99933.63;;;11.87;65.33
39267;BME280;24967;51.154;13.812;2023-05-24T07:34:09;99933.06;;;11.84;65.21
39267;BME280;24967;51.154;13.812;2023-05-24T07:36:36;99940.94;;;11.76;65.59
39267;BME280;24967;51.154;13.812;2023-05-24T07:39:02;99932.97;;;11.76;64.89
39267;BME280;24967;51.154;13.812;2023-05-24T07:41:31;99939.50;;;11.91;64.33
39267;BME280;24967;51.154;13.812;2023-05-24T07:43:59;99940.22;;;11.83;65.32
39267;BME280;24967;51.154;13.812;2023-05-24T07:46:26;99936.41;;;11.58;66.44
39267;BME280;24967;51.154;13.812;2023-05-24T07:48:52;99934.63;;;11.49;67.01
39267;BME280;24967;51.154;13.812;2023-05-24T07:51:19;99945.09;;;11.60;65.83
39267;BME280;24967;51.154;13.812;2023-05-24T07:53:46;99945.63;;;11.64;66.46
39267;BME280;24967;51.154;13.812;2023-05-24T07:56:13;99945.19;;;11.68;67.13
39267;BME280;24967;51.154;13.812;2023-05-24T07:58:39;99947.47;;;11.63;66.13
39267;BME280;24967;51.154;13.812;2023-05-24T08:01:08;99951.31;;;11.51;65.44
39267;BME280;24967;51.154;13.812;2023-05-24T08:03:34;99952.59;;;11.37;64.40
39267;BME280;24967;51.154;13.812;2023-05-24T08:06:02;99960.28;;;11.78;64.56
39267;BME280;24967;51.154;13.812;2023-05-24T08:08:28;99957.03;;;11.56;65.84
39267;BME280;24967;51.154;13.812;2023-05-24T08:10:55;99954.19;;;11.30;65.05
39267;BME280;24967;51.154;13.812;2023-05-24T08:13:21;99961.69;;;11.44;65.18
39267;BME280;24967;51.154;13.812;2023-05-24T08:15:48;99961.25;;;11.49;64.71
39267;BME280;24967;51.154;13.812;2023-05-24T08:18:16;99950.88;;;11.46;63.97
39267;BME280;24967;51.154;13.812;2023-05-24T08:20:43;99961.47;;;11.65;65.03
39267;BME280;24967;51.154;13.812;2023-05-24T08:23:09;99966.06;;;11.73;62.65
39267;BME280;24967;51.154;13.812;2023-05-24T08:25:36;99963.00;;;11.68;62.89
39267;BME280;24967;51.154;13.812;2023-05-24T08:28:02;99969.53;;;11.74;63.28
39267;BME280;24967;51.154;13.812;2023-05-24T08:30:29;99967.47;;;11.67;63.98
39267;BME280;24967;51.154;13.812;2023-05-24T08:32:56;99967.59;;;11.76;65.06
39267;BME280;24967;51.154;13.812;2023-05-24T08:35:24;99963.97;;;12.04;63.79
39267;BME280;24967;51.154;13.812;2023-05-24T08:37:50;99967.78;;;12.02;63.98
39267;BME280;24967;51.154;13.812;2023-05-24T08:40:19;99966.84;;;11.83;63.38
39267;BME280;24967;51.154;13.812;2023-05-24T08:42:48;99973.53;;;11.97;63.20
39267;BME280;24967;51.154;13.812;2023-05-24T08:45:16;99967.78;;;12.02;63.82
39267;BME280;24967;51.154;13.812;2023-05-24T08:47:43;99966.13;;;11.91;63.51
39267;BME280;24967;51.154;13.812;2023-05-24T08:50:11;99976.44;;;12.04;63.29
39267;BME280;24967;51.154;13.812;2023-05-24T08:52:42;99970.75;;;12.17;63.24
39267;BME280;24967;51.154;13.812;2023-05-24T08:55:09;99975.22;;;11.98;63.05
39267;BME280;24967;51.154;13.812;2023-05-24T08:57:36;99973.94;;;12.02;62.15
39267;BME280;24967;51.154;13.812;2023-05-24T09:00:04;99972.56;;;11.98;62.34
39267;BME280;24967;51.154;13.812;2023-05-24T09:02:31;99978.78;;;12.07;61.74
39267;BME280;24967;51.154;13.812;2023-05-24T09:04:58;99974.56;;;12.14;63.80
39267;BME280;24967;51.154;13.812;2023-05-24T09:07:25;99979.06;;;12.13;61.42
39267;BME280;24967;51.154;13.812;2023-05-24T09:09:57;99982.94;;;12.19;61.81
39267;BME280;24967;51.154;13.812;2023-05-24T09:12:25;99978.25;;;12.03;61.79
39267;BME280;24967;51.154;13.812;2023-05-24T09:14:52;99973.19;;;12.28;62.39
39267;BME280;24967;51.154;13.812;2023-05-24T09:17:19;99979.69;;;12.43;61.08
39267;BME280;24967;51.154;13.812;2023-05-24T09:19:50;99975.13;;;12.53;60.53
39267;BME280;24967;51.154;13.812;2023-05-24T09:22:17;99971.72;;;12.15;61.22
39267;BME280;24967;51.154;13.812;2023-05-24T09:24:48;99965.03;;;12.11;61.10
39267;BME280;24967;51.154;13.812;2023-05-24T09:27:16;99978.47;;;12.37;61.24
39267;BME280;24967;51.154;13.812;2023-05-24T09:29:45;99969.53;;;12.65;61.31
39267;BME280;24967;51.154;13.812;2023-05-24T09:32:13;99981.59;;;12.69;61.15
39267;BME280;24967;51.154;13.812;2023-05-24T09:34:40;99977.47;;;12.92;58.32
39267;BME280;24967;51.154;13.812;2023-05-24T09:37:09;99984.38;;;12.85;57.23
39267;BME280;24967;51.154;13.812;2023-05-24T09:39:38;99979.72;;;13.05;59.20
39267;BME280;24967;51.154;13.812;2023-05-24T09:42:06;99976.81;;;13.16;57.76
39267;BME280;24967;51.154;13.812;2023-05-24T09:44:34;99968.66;;;13.44;56.91
39267;BME280;24967;51.154;13.812;2023-05-24T09:47:02;99965.09;;;13.69;55.16
39267;BME280;24967;51.154;13.812;2023-05-24T09:49:30;99974.50;;;13.47;55.49
39267;BME280;24967;51.154;13.812;2023-05-24T09:51:56;99982.13;;;13.68;56.69
39267;BME280;24967;51.154;13.812;2023-05-24T09:54:23;99973.19;;;13.86;54.83
39267;BME280;24967;51.154;13.812;2023-05-24T09:56:51;99976.78;;;13.68;55.97
39267;BME280;24967;51.154;13.812;2023-05-24T09:59:19;99978.59;;;13.60;56.15
39267;BME280;24967;51.154;13.812;2023-05-24T10:01:46;99985.69;;;13.85;56.55
39267;BME280;24967;51.154;13.812;2023-05-24T10:04:18;99975.97;;;13.76;56.00
39267;BME280;24967;51.154;13.812;2023-05-24T10:06:45;99978.94;;;13.65;56.83
39267;BME280;24967;51.154;13.812;2023-05-24T10:09:13;99977.88;;;13.49;55.23
39267;BME280;24967;51.154;13.812;2023-05-24T10:11:40;99981.50;;;13.74;56.80
39267;BME280;24967;51.154;13.812;2023-05-24T10:14:08;99975.63;;;14.21;54.61
39267;BME280;24967;51.154;13.812;2023-05-24T10:16:35;99986.84;;;14.25;53.52
39267;BME280;24967;51.154;13.812;2023-05-24T10:19:03;99983.47;;;14.15;53.82
39267;BME280;24967;51.154;13.812;2023-05-24T10:21:31;99989.75;;;13.97;54.05
39267;BME280;24967;51.154;13.812;2023-05-24T10:24:02;99988.59;;;13.92;53.97
39267;BME280;24967;51.154;13.812;2023-05-24T10:26:31;99976.44;;;14.06;54.92
39267;BME280;24967;51.154;13.812;2023-05-24T10:29:02;99981.84;;;14.30;55.02
39267;BME280;24967;51.154;13.812;2023-05-24T10:31:32;99976.69;;;14.45;53.77
39267;BME280;24967;51.154;13.812;2023-05-24T10:34:02;99986.94;;;14.91;51.31
39267;BME280;24967;51.154;13.812;2023-05-24T10:36:30;99984.63;;;15.04;51.41
39267;BME280;24967;51.154;13.812;2023-05-24T10:38:58;99980.41;;;15.09;50.69
39267;BME280;24967;51.154;13.812;2023-05-24T10:41:24;99979.59;;;14.84;51.22
39267;BME280;24967;51.154;13.812;2023-05-24T10:43:52;99979.94;;;14.98;51.15
39267;BME280;24967;51.154;13.812;2023-05-24T10:46:19;99966.19;;;15.09;53.25
39267;BME280;24967;51.154;13.812;2023-05-24T10:48:58;99979.91;;;15.14;51.56
39267;BME280;24967;51.154;13.812;2023-05-24T10:51:35;99984.88;;;15.33;51.13
39267;BME280;24967;51.154;13.812;2023-05-24T10:54:13;99990.91;;;15.35;52.61
39267;BME280;24967;51.154;13.812;2023-05-24T10:56:42;99990.53;;;15.55;52.60
39267;BME280;24967;51.154;13.812;2023-05-24T10:59:21;100003.50;;;15.27;51.81
39267;BME280;24967;51.154;13.812;2023-05-24T11:01:54;99994.28;;;15.21;50.72
39267;BME280;24967;51.154;13.812;2023-05-24T11:04:21;100001.31;;;15.30;50.83
39267;BME280;24967;51.154;13.812;2023-05-24T11:06:54;99996.28;;;15.27;52.08
39267;BME280;24967;51.154;13.812;2023-05-24T11:09:21;99994.91;;;15.48;51.25
39267;BME280;24967;51.154;13.812;2023-05-24T11:11:49;99994.53;;;15.67;52.68
39267;BME280;24967;51.154;13.812;2023-05-24T11:14:22;99994.84;;;15.80;49.66
39267;BME280;24967;51.154;13.812;2023-05-24T11:16:49;99996.22;;;15.76;48.33
39267;BME280;24967;51.154;13.812;2023-05-24T11:19:17;100004.75;;;15.80;48.93
39267;BME280;24967;51.154;13.812;2023-05-24T11:21:45;100007.22;;;15.90;46.70
39267;BME280;24967;51.154;13.812;2023-05-24T11:24:14;100001.22;;;15.79;47.43
39267;BME280;24967;51.154;13.812;2023-05-24T11:26:42;99990.00;;;15.76;49.44
39267;BME280;24967;51.154;13.812;2023-05-24T11:29:08;99997.69;;;15.79;50.93
39267;BME280;24967;51.154;13.812;2023-05-24T11:31:36;99989.50;;;15.80;50.49
39267;BME280;24967;51.154;13.812;2023-05-24T11:34:04;99985.56;;;15.99;50.48
39267;BME280;24967;51.154;13.812;2023-05-24T11:36:31;99984.72;;;16.30;50.57
39267;BME280;24967;51.154;13.812;2023-05-24T11:39:00;99982.09;;;16.45;50.98
39267;BME280;24967;51.154;13.812;2023-05-24T11:41:36;99992.00;;;16.44;49.62
39267;BME280;24967;51.154;13.812;2023-05-24T11:44:02;99984.78;;;16.45;48.59
39267;BME280;24967;51.154;13.812;2023-05-24T11:46:31;99990.19;;;16.37;47.75
39267;BME280;24967;51.154;13.812;2023-05-24T11:48:59;99979.25;;;15.84;49.47
39267;BME280;24967;51.154;13.812;2023-05-24T11:51:26;99983.81;;;16.07;50.10
39267;BME280;24967;51.154;13.812;2023-05-24T11:53:53;99984.84;;;16.06;49.69
39267;BME280;24967;51.154;13.812;2023-05-24T11:56:19;99989.75;;;15.94;49.86
39267;BME280;24967;51.154;13.812;2023-05-24T11:58:49;99985.16;;;16.11;49.37
39267;BME280;24967;51.154;13.812;2023-05-24T12:01:24;99990.78;;;15.93;50.49
39267;BME280;24967;51.154;13.812;2023-05-24T12:04:04;99987.75;;;15.96;49.93
39267;BME280;24967;51.154;13.812;2023-05-24T12:06:37;99996.13;;;15.93;49.61
39267;BME280;24967;51.154;13.812;2023-05-24T12:09:04;99995.50;;;16.22;49.46
39267;BME280;24967;51.154;13.812;2023-05-24T12:11:33;100002.75;;;16.13;48.42
39267;BME280;24967;51.154;13.812;2023-05-24T12:14:01;100001.06;;;16.12;49.99
39267;BME280;24967;51.154;13.812;2023-05-24T12:16:29;99993.50;;;16.70;46.02
39267;BME280;24967;51.154;13.812;2023-05-24T12:18:57;99997.25;;;16.38;48.11
39267;BME280;24967;51.154;13.812;2023-05-24T12:21:24;99992.09;;;16.59;48.38
39267;BME280;24967;51.154;13.812;2023-05-24T12:23:50;99996.06;;;16.40;48.03
39267;BME280;24967;51.154;13.812;2023-05-24T12:26:17;100004.91;;;16.49;47.90
39267;BME280;24967;51.154;13.812;2023-05-24T12:28:47;99996.88;;;16.95;49.21
39267;BME280;24967;51.154;13.812;2023-05-24T12:31:19;99992.28;;;17.04;49.28
39267;BME280;24967;51.154;13.812;2023-05-24T12:33:46;99993.06;;;16.89;46.64
39267;BME280;24967;51.154;13.812;2023-05-24T12:36:13;99995.91;;;17.11;47.16
39267;BME280;24967;51.154;13.812;2023-05-24T12:38:39;99995.97;;;17.03;47.50
39267;BME280;24967;51.154;13.812;2023-05-24T12:41:06;99992.47;;;17.17;45.86
39267;BME280;24967;51.154;13.812;2023-05-24T12:43:32;100005.47;;;16.90;46.90
39267;BME280;24967;51.154;13.812;2023-05-24T12:46:00;100004.31;;;16.85;48.59
39267;BME280;24967;51.154;13.812;2023-05-24T12:48:28;99999.19;;;16.75;45.48
39267;BME280;24967;51.154;13.812;2023-05-24T12:50:55;100000.44;;;16.64;45.97
39267;BME280;24967;51.154;13.812;2023-05-24T12:53:21;99988.72;;;17.03;46.36